sensor_id;sensor_type;location;lat;lon;timestamp;pressure;altitude;pressure_sealevel;temperature;humidity
70304;BME280;57712;48.752;11.348;2023-01-13T00:00:46;97310.91;;;6.94;100.00
70304;BME280;57712;48.752;11.348;2023-01-13T00:03:12;97312.47;;;6.91;100.00
70304;BME280;57712;48.752;11.348;2023-01-13T00:05:38;97304.25;;;7.02;100.00
70304;BME280;57712;48.752;11.348;2023-01-13T00:08:05;97294.59;;;6.87;100.00
70304;BME280;57712;48.752;11.348;2023-01-13T00:10:32;97291.88;;;6.90;100.00
70304;BME280;57712;48.752;11.348;2023-01-13T00:13:00;97289.94;;;6.91;100.00
70304;BME280;57712;48.752;11.348;2023-01-13T00:15:27;97287.22;;;6.87;100.00
70304;BME280;57712;48.752;11.348;2023-01-13T00:17:53;97295.78;;;6.89;100.00
70304;BME280;57712;48.752;11.348;2023-01-13T00:20:20;97282.53;;;6.91;100.00
70304;BME280;57712;48.752;11.348;2023-01-13T00:22:46;97286.34;;;6.98;100.00
70304;BME280;57712;48.752;11.348;2023-01-13T00:25:12;97290.34;;;6.89;100.00
70304;BME280;57712;48.752;11.348;2023-01-13T00:27:38;97280.63;;;6.88;100.00
70304;BME280;57712;48.752;11.348;2023-01-13T00:30:06;97275.56;;;6.83;100.00
70304;BME280;57712;48.752;11.348;2023-01-13T00:32:32;97273.22;;;6.85;100.00
70304;BME280;57712;48.752;11.348;2023-01-13T00:34:59;97262.72;;;6.87;100.00
70304;BME280;57712;48.752;11.348;2023-01-13T00:37:25;97262.34;;;6.85;100.00
70304;BME280;57712;48.752;11.348;2023-01-13T00:39:52;97266.22;;;6.88;100.00
70304;BME280;57712;48.752;11.348;2023-01-13T00:42:19;97271.28;;;6.89;100.00
70304;BME280;57712;48.752;11.348;2023-01-13T00:45:04;97272.41;;;6.92;100.00
70304;BME280;57712;48.752;11.348;2023-01-13T00:47:30;97260.72;;;6.99;100.00
70304;BME280;57712;48.752;11.348;2023-01-13T00:49:57;97270.78;;;7.02;100.00
70304;BME280;57712;48.752;11.348;2023-01-13T00:52:23;97264.16;;;7.03;100.00
70304;BME280;57712;48.752;11.348;2023-01-13T00:54:49;97260.63;;;7.06;100.00
70304;BME280;57712;48.752;11.348;2023-01-13T00:57:16;97251.69;;;7.09;100.00
70304;BME280;57712;48.752;11.348;2023-01-13T00:59:42;97252.81;;;7.08;100.00
70304;BME280;57712;48.752;11.348;2023-01-13T01:02:09;97237.25;;;7.12;100.00
70304;BME280;57712;48.752;11.348;2023-01-13T01:04:35;97228.63;;;7.17;100.00
70304;BME280;57712;48.752;11.348;2023-01-13T01:07:02;97237.22;;;7.15;100.00
70304;BME280;57712;48.752;11.348;2023-01-13T01:09:28;97226.66;;;7.21;100.00
70304;BME280;57712;48.752;11.348;2023-01-13T01:11:58;97227.81;;;7.23;100.00
70304;BME280;57712;48.752;11.348;2023-01-13T01:14:26;97223.91;;;7.24;100.00
70304;BME280;57712;48.752;11.348;2023-01-13T01:16:52;97223.13;;;7.24;100.00
70304;BME280;57712;48.752;11.348;2023-01-13T01:19:19;97216.09;;;7.27;100.00
70304;BME280;57712;48.752;11.348;2023-01-13T01:21:45;97222.31;;;7.31;100.00
70304;BME280;57712;48.752;11.348;2023-01-13T01:24:12;97223.84;;;7.32;100.00
70304;BME280;57712;48.752;11.348;2023-01-13T01:26:38;97213.72;;;7.32;100.00
70304;BME280;57712;48.752;11.348;2023-01-13T01:29:10;97211.56;;;7.54;100.00
70304;BME280;57712;48.752;11.348;2023-01-13T01:31:37;97223.81;;;7.35;100.00
70304;BME280;57712;48.752;11.348;2023-01-13T01:34:03;97229.22;;;7.39;100.00
70304;BME280;57712;48.752;11.348;2023-01-13T01:36:29;97224.47;;;7.46;100.00
70304;BME280;57712;48.752;11.348;2023-01-13T01:38:57;97230.72;;;7.43;100.00
70304;BME280;57712;48.752;11.348;2023-01-13T01:41:27;97235.38;;;7.46;100.00
70304;BME280;57712;48.752;11.348;2023-01-13T01:43:54;97221.69;;;7.50;100.00
70304;BME280;57712;48.752;11.348;2023-01-13T01:46:40;97219.78;;;7.50;100.00
70304;BME280;57712;48.752;11.348;2023-01-13T01:49:25;97221.28;;;7.55;100.00
70304;BME280;57712;48.752;11.348;2023-01-13T01:52:03;97223.63;;;7.53;100.00
70304;BME280;57712;48.752;11.348;2023-01-13T01:54:42;97222.81;;;7.56;100.00
70304;BME280;57712;48.752;11.348;2023-01-13T01:57:17;97220.91;;;7.53;100.00
70304;BME280;57712;48.752;11.348;2023-01-13T01:59:45;97211.97;;;7.52;100.00
70304;BME280;57712;48.752;11.348;2023-01-13T02:02:11;97212.31;;;7.55;100.00
70304;BME280;57712;48.752;11.348;2023-01-13T02:04:40;97213.88;;;7.56;100.00
70304;BME280;57712;48.752;11.348;2023-01-13T02:07:08;97213.41;;;7.61;100.00
70304;BME280;57712;48.752;11.348;2023-01-13T02:09:35;97200.16;;;7.63;100.00
70304;BME280;57712;48.752;11.348;2023-01-13T02:12:01;97210.25;;;7.66;100.00
70304;BME280;57712;48.752;11.348;2023-01-13T02:14:46;97196.97;;;7.68;100.00
70304;BME280;57712;48.752;11.348;2023-01-13T02:23:12;97172.38;;;7.75;100.00
70304;BME280;57712;48.752;11.348;2023-01-13T02:26:27;97173.09;;;7.79;100.00
70304;BME280;57712;48.752;11.348;2023-01-13T02:29:27;97167.22;;;7.80;100.00
70304;BME280;57712;48.752;11.348;2023-01-13T02:32:33;97179.28;;;7.83;100.00
70304;BME280;57712;48.752;11.348;2023-01-13T02:37:29;97174.97;;;7.86;100.00
70304;BME280;57712;48.752;11.348;2023-01-13T02:40:02;97171.47;;;7.85;100.00
70304;BME280;57712;48.752;11.348;2023-01-13T02:42:33;97164.47;;;7.84;100.00
70304;BME280;57712;48.752;11.348;2023-01-13T02:45:23;97169.56;;;7.82;100.00
70304;BME280;57712;48.752;11.348;2023-01-13T02:47:51;97167.97;;;7.85;100.00
70304;BME280;57712;48.752;11.348;2023-01-13T02:50:45;97153.22;;;7.82;100.00
70304;BME280;57712;48.752;11.348;2023-01-13T02:53:18;97168.81;;;7.81;100.00
70304;BME280;57712;48.752;11.348;2023-01-13T02:55:49;97174.16;;;7.89;100.00
70304;BME280;57712;48.752;11.348;2023-01-13T02:58:20;97157.75;;;7.92;100.00
70304;BME280;57712;48.752;11.348;2023-01-13T03:00:48;97167.47;;;7.93;100.00
70304;BME280;57712;48.752;11.348;2023-01-13T03:03:14;97162.81;;;7.90;100.00
70304;BME280;57712;48.752;11.348;2023-01-13T03:05:42;97160.06;;;7.94;100.00
70304;BME280;57712;48.752;11.348;2023-01-13T03:08:38;97159.31;;;7.93;100.00
70304;BME280;57712;48.752;11.348;2023-01-13T03:11:10;97166.28;;;7.94;100.00
70304;BME280;57712;48.752;11.348;2023-01-13T03:14:06;97152.31;;;7.92;100.00
70304;BME280;57712;48.752;11.348;2023-01-13T03:19:43;97152.38;;;7.85;100.00
70304;BME280;57712;48.752;11.348;2023-01-13T03:22:34;97150.38;;;7.89;100.00
70304;BME280;57712;48.752;11.348;2023-01-13T03:25:10;97148.84;;;7.88;100.00
70304;BME280;57712;48.752;11.348;2023-01-13T03:27:48;97149.31;;;7.83;100.00
70304;BME280;57712;48.752;11.348;2023-01-13T03:30:43;97148.06;;;7.88;100.00
70304;BME280;57712;48.752;11.348;2023-01-13T03:33:13;97145.13;;;7.75;100.00
70304;BME280;57712;48.752;11.348;2023-01-13T03:35:44;97129.88;;;7.77;100.00
70304;BME280;57712;48.752;11.348;2023-01-13T03:38:17;97131.44;;;7.78;100.00
70304;BME280;57712;48.752;11.348;2023-01-13T03:40:57;97134.22;;;7.75;100.00
70304;BME280;57712;48.752;11.348;2023-01-13T03:43:33;97135.38;;;7.74;100.00
70304;BME280;57712;48.752;11.348;2023-01-13T03:46:27;97131.44;;;7.78;100.00
70304;BME280;57712;48.752;11.348;2023-01-13T03:48:56;97131.47;;;7.75;100.00
70304;BME280;57712;48.752;11.348;2023-01-13T03:51:27;97129.47;;;7.79;100.00
70304;BME280;57712;48.752;11.348;2023-01-13T03:53:59;97128.28;;;7.80;100.00
70304;BME280;57712;48.752;11.348;2023-01-13T03:56:40;97121.69;;;7.77;100.00
70304;BME280;57712;48.752;11.348;2023-01-13T03:59:11;97125.13;;;7.85;100.00
70304;BME280;57712;48.752;11.348;2023-01-13T04:02:00;97126.31;;;7.84;100.00
70304;BME280;57712;48.752;11.348;2023-01-13T04:04:32;97119.31;;;7.83;100.00
70304;BME280;57712;48.752;11.348;2023-01-13T04:07:32;97121.25;;;7.82;100.00
70304;BME280;57712;48.752;11.348;2023-01-13T04:09:58;97112.59;;;7.88;100.00
70304;BME280;57712;48.752;11.348;2023-01-13T04:12:29;97114.56;;;7.87;100.00
70304;BME280;57712;48.752;11.348;2023-01-13T04:15:16;97110.97;;;7.94;100.00
70304;BME280;57712;48.752;11.348;2023-01-13T04:17:43;97107.88;;;7.92;100.00
70304;BME280;57712;48.752;11.348;2023-01-13T04:20:10;97105.56;;;7.90;100.00
70304;BME280;57712;48.752;11.348;2023-01-13T04:22:36;97118.41;;;7.93;100.00
70304;BME280;57712;48.752;11.348;2023-01-13T04:25:03;97116.84;;;7.92;100.00
70304;BME280;57712;48.752;11.348;2023-01-13T04:27:30;97113.28;;;7.95;100.00
70304;BME280;57712;48.752;11.348;2023-01-13T04:29:56;97122.53;;;8.01;100.00
70304;BME280;57712;48.752;11.348;2023-01-13T04:32:22;97121.06;;;7.97;100.00
70304;BME280;57712;48.752;11.348;2023-01-13T04:34:49;97122.50;;;8.05;100.00
70304;BME280;57712;48.752;11.348;2023-01-13T04:37:15;97120.66;;;7.98;100.00
70304;BME280;57712;48.752;11.348;2023-01-13T04:39:41;97121.38;;;8.02;100.00
70304;BME280;57712;48.752;11.348;2023-01-13T04:42:08;97113.91;;;8.06;100.00
70304;BME280;57712;48.752;11.348;2023-01-13T04:44:34;97116.28;;;8.04;100.00
70304;BME280;57712;48.752;11.348;2023-01-13T04:47:01;97114.69;;;8.07;100.00
70304;BME280;57712;48.752;11.348;2023-01-13T04:49:27;97108.09;;;8.04;100.00
70304;BME280;57712;48.752;11.348;2023-01-13T04:51:54;97117.00;;;8.08;100.00
70304;BME280;57712;48.752;11.348;2023-01-13T04:54:20;97115.81;;;8.09;100.00
70304;BME280;57712;48.752;11.348;2023-01-13T04:56:46;97118.53;;;8.09;100.00
70304;BME280;57712;48.752;11.348;2023-01-13T04:59:13;97117.00;;;8.08;100.00
70304;BME280;57712;48.752;11.348;2023-01-13T05:01:40;97126.97;;;8.19;100.00
70304;BME280;57712;48.752;11.348;2023-01-13T05:04:06;97121.53;;;8.19;100.00
70304;BME280;57712;48.752;11.348;2023-01-13T05:06:33;97120.00;;;8.18;100.00
70304;BME280;57712;48.752;11.348;2023-01-13T05:08:59;97117.97;;;8.22;100.00
70304;BME280;57712;48.752;11.348;2023-01-13T05:11:26;97111.31;;;8.23;100.00
70304;BME280;57712;48.752;11.348;2023-01-13T05:14:10;97114.06;;;8.23;100.00
70304;BME280;57712;48.752;11.348;2023-01-13T05:17:00;97105.88;;;8.23;100.00
70304;BME280;57712;48.752;11.348;2023-01-13T05:21:54;97112.16;;;8.20;100.00
70304;BME280;57712;48.752;11.348;2023-01-13T05:24:39;97115.63;;;8.24;100.00
70304;BME280;57712;48.752;11.348;2023-01-13T05:27:25;97115.97;;;8.26;100.00
70304;BME280;57712;48.752;11.348;2023-01-13T05:29:51;97113.34;;;8.19;100.00
70304;BME280;57712;48.752;11.348;2023-01-13T05:32:18;97109.69;;;8.29;100.00
70304;BME280;57712;48.752;11.348;2023-01-13T05:34:44;97115.25;;;8.22;100.00
70304;BME280;57712;48.752;11.348;2023-01-13T05:37:11;97115.97;;;8.26;100.00
70304;BME280;57712;48.752;11.348;2023-01-13T05:39:39;97112.13;;;8.23;100.00
70304;BME280;57712;48.752;11.348;2023-01-13T05:42:25;97108.91;;;8.28;100.00
70304;BME280;57712;48.752;11.348;2023-01-13T05:45:10;97108.97;;;8.25;100.00
70304;BME280;57712;48.752;11.348;2023-01-13T05:47:37;97109.34;;;8.27;100.00
70304;BME280;57712;48.752;11.348;2023-01-13T05:50:04;97107.31;;;8.31;100.00
70304;BME280;57712;48.752;11.348;2023-01-13T05:52:30;97104.94;;;8.33;100.00
70304;BME280;57712;48.752;11.348;2023-01-13T05:54:57;97106.13;;;8.32;100.00
70304;BME280;57712;48.752;11.348;2023-01-13T05:57:23;97111.97;;;8.34;100.00
70304;BME280;57712;48.752;11.348;2023-01-13T05:59:50;97113.13;;;8.33;100.00
70304;BME280;57712;48.752;11.348;2023-01-13T06:02:16;97113.53;;;8.35;100.00
70304;BME280;57712;48.752;11.348;2023-01-13T06:04:43;97117.03;;;8.35;100.00
70304;BME280;57712;48.752;11.348;2023-01-13T06:07:10;97109.56;;;8.39;100.00
70304;BME280;57712;48.752;11.348;2023-01-13T06:09:37;97111.97;;;8.34;100.00
70304;BME280;57712;48.752;11.348;2023-01-13T06:12:04;97118.22;;;8.34;100.00
70304;BME280;57712;48.752;11.348;2023-01-13T06:14:30;97122.06;;;8.37;100.00
70304;BME280;57712;48.752;11.348;2023-01-13T06:17:07;97123.69;;;8.31;100.00
70304;BME280;57712;48.752;11.348;2023-01-13T06:19:34;97122.44;;;8.39;100.00
70304;BME280;57712;48.752;11.348;2023-01-13T06:22:14;97124.31;;;8.42;100.00
70304;BME280;57712;48.752;11.348;2023-01-13T06:24:43;97117.28;;;8.45;100.00
70304;BME280;57712;48.752;11.348;2023-01-13T06:27:11;97113.38;;;8.46;100.00
70304;BME280;57712;48.752;11.348;2023-01-13T06:29:38;97116.88;;;8.46;100.00
70304;BME280;57712;48.752;11.348;2023-01-13T06:32:06;97119.59;;;8.46;100.00
70304;BME280;57712;48.752;11.348;2023-01-13T06:34:36;97118.41;;;8.47;100.00
70304;BME280;57712;48.752;11.348;2023-01-13T06:37:03;97127.38;;;8.48;100.00
70304;BME280;57712;48.752;11.348;2023-01-13T06:39:30;97123.38;;;8.52;100.00
70304;BME280;57712;48.752;11.348;2023-01-13T06:41:57;97117.13;;;8.55;100.00
70304;BME280;57712;48.752;11.348;2023-01-13T06:44:44;97125.31;;;8.55;100.00
70304;BME280;57712;48.752;11.348;2023-01-13T06:47:10;97130.28;;;8.60;100.00
70304;BME280;57712;48.752;11.348;2023-01-13T06:49:40;97123.28;;;8.59;100.00
70304;BME280;57712;48.752;11.348;2023-01-13T06:52:07;97118.84;;;8.69;100.00
70304;BME280;57712;48.752;11.348;2023-01-13T06:54:33;97114.16;;;8.70;100.00
70304;BME280;57712;48.752;11.348;2023-01-13T06:57:00;97121.50;;;8.73;100.00
70304;BME280;57712;48.752;11.348;2023-01-13T06:59:27;97123.88;;;8.71;100.00
70304;BME280;57712;48.752;11.348;2023-01-13T07:01:55;97127.31;;;8.75;100.00
70304;BME280;57712;48.752;11.348;2023-01-13T07:04:22;97114.31;;;8.82;100.00
70304;BME280;57712;48.752;11.348;2023-01-13T07:06:49;97114.84;;;8.74;100.00
70304;BME280;57712;48.752;11.348;2023-01-13T07:09:15;97122.63;;;8.75;100.00
70304;BME280;57712;48.752;11.348;2023-01-13T07:11:42;97111.31;;;8.77;100.00
70304;BME280;57712;48.752;11.348;2023-01-13T07:14:08;97121.81;;;8.78;100.00
70304;BME280;57712;48.752;11.348;2023-01-13T07:16:53;97113.47;;;8.85;100.00
70304;BME280;57712;48.752;11.348;2023-01-13T07:19:20;97112.69;;;8.85;100.00
70304;BME280;57712;48.752;11.348;2023-01-13T07:21:52;97116.63;;;8.84;100.00
70304;BME280;57712;48.752;11.348;2023-01-13T07:24:18;97117.88;;;8.79;100.00
70304;BME280;57712;48.752;11.348;2023-01-13T07:26:45;97117.53;;;8.77;100.00
70304;BME280;57712;48.752;11.348;2023-01-13T07:29:11;97109.19;;;8.84;100.00
70304;BME280;57712;48.752;11.348;2023-01-13T07:31:38;97108.91;;;8.79;100.00
70304;BME280;57712;48.752;11.348;2023-01-13T07:34:05;97104.94;;;8.83;100.00
70304;BME280;57712;48.752;11.348;2023-01-13T07:36:35;97108.00;;;8.85;100.00
70304;BME280;57712;48.752;11.348;2023-01-13T07:39:02;97106.88;;;8.83;100.00
70304;BME280;57712;48.752;11.348;2023-01-13T07:41:28;97105.22;;;8.89;100.00
70304;BME280;57712;48.752;11.348;2023-01-13T07:44:16;97106.44;;;8.88;100.00
70304;BME280;57712;48.752;11.348;2023-01-13T07:46:42;97113.44;;;8.89;100.00
70304;BME280;57712;48.752;11.348;2023-01-13T07:49:09;97119.66;;;8.89;100.00
70304;BME280;57712;48.752;11.348;2023-01-13T07:51:37;97117.22;;;8.95;100.00
70304;BME280;57712;48.752;11.348;2023-01-13T07:54:04;97120.44;;;8.90;100.00
70304;BME280;57712;48.752;11.348;2023-01-13T07:56:31;97121.00;;;9.01;100.00
70304;BME280;57712;48.752;11.348;2023-01-13T07:58:59;97127.78;;;8.93;100.00
70304;BME280;57712;48.752;11.348;2023-01-13T08:01:25;97127.75;;;8.96;100.00
70304;BME280;57712;48.752;11.348;2023-01-13T08:03:54;97137.81;;;9.00;100.00
70304;BME280;57712;48.752;11.348;2023-01-13T08:06:21;97140.59;;;8.96;100.00
70304;BME280;57712;48.752;11.348;2023-01-13T08:08:47;97133.59;;;8.95;100.00
70304;BME280;57712;48.752;11.348;2023-01-13T08:11:14;97152.31;;;8.96;100.00
70304;BME280;57712;48.752;11.348;2023-01-13T08:13:40;97149.19;;;8.98;100.00
70304;BME280;57712;48.752;11.348;2023-01-13T08:16:09;97151.53;;;8.96;100.00
70304;BME280;57712;48.752;11.348;2023-01-13T08:18:36;97165.56;;;8.98;100.00
70304;BME280;57712;48.752;11.348;2023-01-13T08:21:05;97159.34;;;8.98;100.00
70304;BME280;57712;48.752;11.348;2023-01-13T08:23:33;97161.69;;;8.95;100.00
70304;BME280;57712;48.752;11.348;2023-01-13T08:26:00;97161.56;;;9.03;100.00
70304;BME280;57712;48.752;11.348;2023-01-13T08:28:28;97161.50;;;9.06;100.00
70304;BME280;57712;48.752;11.348;2023-01-13T08:30:58;97148.34;;;9.01;100.00
70304;BME280;57712;48.752;11.348;2023-01-13T08:33:25;97154.31;;;9.16;100.00
70304;BME280;57712;48.752;11.348;2023-01-13T08:35:51;97149.22;;;9.18;100.00
70304;BME280;57712;48.752;11.348;2023-01-13T08:38:19;97154.16;;;9.03;100.00
70304;BME280;57712;48.752;11.348;2023-01-13T08:40:45;97148.25;;;9.05;100.00
70304;BME280;57712;48.752;11.348;2023-01-13T08:43:11;97141.22;;;9.07;100.00
70304;BME280;57712;48.752;11.348;2023-01-13T08:45:38;97148.22;;;9.08;100.00
70304;BME280;57712;48.752;11.348;2023-01-13T08:48:04;97149.09;;;9.02;100.00
70304;BME280;57712;48.752;11.348;2023-01-13T08:50:31;97149.41;;;9.07;100.00
70304;BME280;57712;48.752;11.348;2023-01-13T08:52:57;97153.59;;;9.12;100.00
70304;BME280;57712;48.752;11.348;2023-01-13T08:55:24;97149.25;;;9.14;100.00
70304;BME280;57712;48.752;11.348;2023-01-13T08:57:50;97151.19;;;9.17;100.00
70304;BME280;57712;48.752;11.348;2023-01-13T09:00:18;97155.91;;;9.13;100.00
70304;BME280;57712;48.752;11.348;2023-01-13T09:02:45;97145.72;;;9.17;100.00
70304;BME280;57712;48.752;11.348;2023-01-13T09:05:11;97143.34;;;9.19;100.00
70304;BME280;57712;48.752;11.348;2023-01-13T09:07:37;97143.56;;;9.29;100.00
70304;BME280;57712;48.752;11.348;2023-01-13T09:10:05;97148.06;;;9.15;100.00
70304;BME280;57712;48.752;11.348;2023-01-13T09:12:32;97162.16;;;9.14;100.00
70304;BME280;57712;48.752;11.348;2023-01-13T09:15:17;97178.28;;;9.08;100.00
70304;BME280;57712;48.752;11.348;2023-01-13T09:17:46;97178.09;;;9.19;100.00
70304;BME280;57712;48.752;11.348;2023-01-13T09:20:13;97173.03;;;9.17;100.00
70304;BME280;57712;48.752;11.348;2023-01-13T09:22:39;97169.16;;;9.15;100.00
70304;BME280;57712;48.752;11.348;2023-01-13T09:25:07;97175.69;;;9.21;100.00
70304;BME280;57712;48.752;11.348;2023-01-13T09:27:33;97182.41;;;9.16;100.00
70304;BME280;57712;48.752;11.348;2023-01-13T09:30:00;97183.13;;;9.20;100.00
70304;BME280;57712;48.752;11.348;2023-01-13T09:32:26;97174.44;;;9.25;100.00
70304;BME280;57712;48.752;11.348;2023-01-13T09:34:53;97183.59;;;9.39;100.00
70304;BME280;57712;48.752;11.348;2023-01-13T09:37:37;97180.84;;;9.39;100.00
70304;BME280;57712;48.752;11.348;2023-01-13T09:40:09;97176.31;;;9.52;100.00
70304;BME280;57712;48.752;11.348;2023-01-13T09:42:57;97166.38;;;9.62;100.00
70304;BME280;57712;48.752;11.348;2023-01-13T09:45:56;97150.84;;;9.75;100.00
70304;BME280;57712;48.752;11.348;2023-01-13T09:48:29;97151.38;;;10.06;100.00
70304;BME280;57712;48.752;11.348;2023-01-13T09:50:59;97147.53;;;10.23;100.00
70304;BME280;57712;48.752;11.348;2023-01-13T09:53:31;97148.31;;;10.20;100.00
70304;BME280;57712;48.752;11.348;2023-01-13T09:55:58;97154.75;;;10.50;100.00
70304;BME280;57712;48.752;11.348;2023-01-13T09:58:25;97143.78;;;10.50;100.00
70304;BME280;57712;48.752;11.348;2023-01-13T10:03:27;97160.81;;;10.41;100.00
70304;BME280;57712;48.752;11.348;2023-01-13T10:06:18;97145.78;;;10.65;100.00
70304;BME280;57712;48.752;11.348;2023-01-13T10:08:48;97143.63;;;10.57;100.00
70304;BME280;57712;48.752;11.348;2023-01-13T10:11:22;97134.66;;;10.56;100.00
70304;BME280;57712;48.752;11.348;2023-01-13T10:14:27;97127.28;;;10.53;100.00
70304;BME280;57712;48.752;11.348;2023-01-13T10:17:20;97139.19;;;10.63;100.00
70304;BME280;57712;48.752;11.348;2023-01-13T10:19:58;97132.50;;;10.64;100.00
70304;BME280;57712;48.752;11.348;2023-01-13T10:22:41;97119.56;;;10.48;100.00
70304;BME280;57712;48.752;11.348;2023-01-13T10:25:30;97122.22;;;10.35;100.00
70304;BME280;57712;48.752;11.348;2023-01-13T10:28:10;97142.50;;;10.38;100.00
70304;BME280;57712;48.752;11.348;2023-01-13T10:30:41;97133.78;;;10.43;100.00
70304;BME280;57712;48.752;11.348;2023-01-13T10:33:24;97136.78;;;10.32;100.00
70304;BME280;57712;48.752;11.348;2023-01-13T10:36:30;97134.63;;;10.24;100.00
70304;BME280;57712;48.752;11.348;2023-01-13T10:39:14;97113.41;;;10.44;100.00
70304;BME280;57712;48.752;11.348;2023-01-13T10:42:02;97130.88;;;10.34;100.00
70304;BME280;57712;48.752;11.348;2023-01-13T10:44:54;97112.81;;;10.36;100.00
70304;BME280;57712;48.752;11.348;2023-01-13T10:47:27;97111.28;;;10.35;100.00
70304;BME280;57712;48.752;11.348;2023-01-13T10:52:39;97105.69;;;10.39;100.00
70304;BME280;57712;48.752;11.348;2023-01-13T10:55:33;97113.25;;;10.35;100.00
70304;BME280;57712;48.752;11.348;2023-01-13T10:58:18;97119.75;;;10.05;100.00
70304;BME280;57712;48.752;11.348;2023-01-13T11:01:17;97115.31;;;10.11;100.00
70304;BME280;57712;48.752;11.348;2023-01-13T11:03:59;97131.91;;;9.84;100.00
70304;BME280;57712;48.752;11.348;2023-01-13T11:06:57;97122.44;;;9.89;100.00
70304;BME280;57712;48.752;11.348;2023-01-13T11:09:26;97121.41;;;9.82;100.00
70304;BME280;57712;48.752;11.348;2023-01-13T11:11:57;97126.94;;;9.79;100.00
70304;BME280;57712;48.752;11.348;2023-01-13T11:14:43;97140.69;;;9.75;100.00
70304;BME280;57712;48.752;11.348;2023-01-13T11:17:38;97136.06;;;9.72;100.00
70304;BME280;57712;48.752;11.348;2023-01-13T11:20:22;97142.53;;;9.62;100.00
70304;BME280;57712;48.752;11.348;2023-01-13T11:22:58;97142.09;;;9.64;100.00
70304;BME280;57712;48.752;11.348;2023-01-13T11:25:42;97148.75;;;9.63;100.00
70304;BME280;57712;48.752;11.348;2023-01-13T11:28:33;97158.50;;;9.44;100.00
70304;BME280;57712;48.752;11.348;2023-01-13T11:34:31;97162.13;;;9.17;100.00
70304;BME280;57712;48.752;11.348;2023-01-13T11:37:19;97163.84;;;9.08;100.00
70304;BME280;57712;48.752;11.348;2023-01-13T11:43:02;97165.75;;;8.87;100.00
70304;BME280;57712;48.752;11.348;2023-01-13T11:45:44;97168.06;;;8.89;100.00
70304;BME280;57712;48.752;11.348;2023-01-13T11:48:20;97175.72;;;8.98;100.00
70304;BME280;57712;48.752;11.348;2023-01-13T11:51:29;97177.25;;;8.99;100.00
70304;BME280;57712;48.752;11.348;2023-01-13T11:54:18;97173.53;;;8.89;100.00
70304;BME280;57712;48.752;11.348;2023-01-13T12:03:22;97174.50;;;8.75;100.00
70304;BME280;57712;48.752;11.348;2023-01-13T12:06:16;97161.66;;;8.49;100.00
70304;BME280;57712;48.752;11.348;2023-01-13T12:25:28;97158.75;;;8.36;100.00
70304;BME280;57712;48.752;11.348;2023-01-13T12:28:17;97170.06;;;8.34;100.00
70304;BME280;57712;48.752;11.348;2023-01-13T12:31:05;97189.03;;;8.15;100.00
70304;BME280;57712;48.752;11.348;2023-01-13T12:45:40;97178.81;;;7.88;100.00
70304;BME280;57712;48.752;11.348;2023-01-13T12:51:33;97192.38;;;7.95;100.00
70304;BME280;57712;48.752;11.348;2023-01-13T12:57:23;97191.88;;;8.04;100.00
70304;BME280;57712;48.752;11.348;2023-01-13T13:02:36;97189.03;;;8.45;100.00
70304;BME280;57712;48.752;11.348;2023-01-13T13:07:52;97198.84;;;8.08;100.00
70304;BME280;57712;48.752;11.348;2023-01-13T13:10:30;97195.69;;;8.10;100.00
70304;BME280;57712;48.752;11.348;2023-01-13T13:13:01;97200.69;;;7.85;100.00
70304;BME280;57712;48.752;11.348;2023-01-13T13:15:48;97208.38;;;7.93;100.00
70304;BME280;57712;48.752;11.348;2023-01-13T13:21:07;97214.69;;;7.87;100.00
70304;BME280;57712;48.752;11.348;2023-01-13T13:24:02;97216.41;;;7.73;100.00
70304;BME280;57712;48.752;11.348;2023-01-13T13:26:36;97221.09;;;7.73;100.00
70304;BME280;57712;48.752;11.348;2023-01-13T13:29:27;97226.53;;;7.73;100.00
70304;BME280;57712;48.752;11.348;2023-01-13T13:32:17;97239.06;;;7.67;100.00
70304;BME280;57712;48.752;11.348;2023-01-13T13:35:11;97226.59;;;7.66;100.00
70304;BME280;57712;48.752;11.348;2023-01-13T13:37:50;97234.50;;;7.57;100.00
70304;BME280;57712;48.752;11.348;2023-01-13T13:40:42;97238.41;;;7.56;100.00
70304;BME280;57712;48.752;11.348;2023-01-13T13:43:30;97256.34;;;7.49;100.00
70304;BME280;57712;48.752;11.348;2023-01-13T13:49:11;97254.78;;;7.52;100.00
70304;BME280;57712;48.752;11.348;2023-01-13T13:51:50;97259.16;;;7.42;100.00
70304;BME280;57712;48.752;11.348;2023-01-13T13:54:21;97264.16;;;7.47;100.00
70304;BME280;57712;48.752;11.348;2023-01-13T13:56:48;97276.19;;;7.53;100.00
70304;BME280;57712;48.752;11.348;2023-01-13T13:59:22;97271.16;;;7.52;100.00
70304;BME280;57712;48.752;11.348;2023-01-13T14:01:52;97279.44;;;7.38;100.00
70304;BME280;57712;48.752;11.348;2023-01-13T14:04:31;97293.84;;;7.38;100.00
70304;BME280;57712;48.752;11.348;2023-01-13T14:07:00;97299.69;;;7.37;100.00
70304;BME280;57712;48.752;11.348;2023-01-13T14:09:39;97293.81;;;7.42;100.00
70304;BME280;57712;48.752;11.348;2023-01-13T14:12:15;97284.88;;;7.41;100.00
70304;BME280;57712;48.752;11.348;2023-01-13T14:14:43;97281.38;;;7.37;100.00
70304;BME280;57712;48.752;11.348;2023-01-13T14:17:17;97276.34;;;7.36;100.00
70304;BME280;57712;48.752;11.348;2023-01-13T14:19:51;97283.00;;;7.31;100.00
70304;BME280;57712;48.752;11.348;2023-01-13T14:22:18;97292.28;;;7.37;100.00
70304;BME280;57712;48.752;11.348;2023-01-13T14:24:46;97302.91;;;7.24;100.00
70304;BME280;57712;48.752;11.348;2023-01-13T14:27:16;97303.34;;;7.16;100.00
70304;BME280;57712;48.752;11.348;2023-01-13T14:29:43;97316.56;;;7.17;100.00
70304;BME280;57712;48.752;11.348;2023-01-13T14:32:17;97323.63;;;7.08;100.00
70304;BME280;57712;48.752;11.348;2023-01-13T14:34:45;97329.06;;;7.11;100.00
70304;BME280;57712;48.752;11.348;2023-01-13T14:39:54;97328.84;;;6.88;100.00
70304;BME280;57712;48.752;11.348;2023-01-13T14:42:20;97320.63;;;6.95;100.00